Portland — WDG2201 — position and weather

sailwx.info

Track history (hours):
 
Tides and Currents Weather Stations Pressure Air Temp Water Temp Dewpoint Dewpoint Depression Visibility Wind Speed Wind Dir Waves Ship Positions

Portland

Owner: Shaver Transportation Company, Portland, OR. More information available from US FCC via Universal Licensing System and Coast Guard Vessel Documentation Center.

Last reported at 2017-Jul-24 06:21 UTC. Time now 2017-Jul-24 06:37 UTC.
Position N 45°39' W 122°45'.

Length 27 m; draft 4 m.

Type: Towing. MMSI: 367315814.

Date/timePositionNaut miles runAvg speedWind from/ knotsBaromVisibWave heightAir tempDewpointWater temp
2017-Jul-24 06:21N 45°39' W 122°45'0 0.0
2017-Jul-24 05:48N 45°39' W 122°45'0 0.0
2017-Jul-24 05:30N 45°39' W 122°45'0 0.0
2017-Jul-24 04:54N 45°39' W 122°45'0 0.0
2017-Jul-24 04:30N 45°39' W 122°45'0 0.0
2017-Jul-24 03:57N 45°39' W 122°45'0 0.0
2017-Jul-24 03:30N 45°39' W 122°45'0 0.0
2017-Jul-24 02:57N 45°39' W 122°45'1 1.6
2017-Jul-24 02:23N 45°38' W 122°44'0 0.3
2017-Jul-24 02:00N 45°38' W 122°44'1 1.1
2017-Jul-24 01:30N 45°38' W 122°45'0 0.6
2017-Jul-24 01:00N 45°39' W 122°45'0 0.0
2017-Jul-24 00:24N 45°39' W 122°45'0 0.0
2017-Jul-23 23:57N 45°39' W 122°45'0 0.0
2017-Jul-23 23:27N 45°39' W 122°45'0 0.0
2017-Jul-23 22:57N 45°39' W 122°45'0 0.0
2017-Jul-23 22:30N 45°39' W 122°45'0 0.0
2017-Jul-23 22:00N 45°39' W 122°45'0 0.0
2017-Jul-23 21:30N 45°39' W 122°45'0 0.0
2017-Jul-23 21:00N 45°39' W 122°45'0 0.0
2017-Jul-23 20:30N 45°39' W 122°45'0 0.0
2017-Jul-23 20:00N 45°39' W 122°45'0 0.0
2017-Jul-23 19:30N 45°39' W 122°45'0 0.0
2017-Jul-23 18:57N 45°39' W 122°45'0 0.0
2017-Jul-23 18:30N 45°39' W 122°45'0 0.0
2017-Jul-23 18:00N 45°39' W 122°45'0 0.0
2017-Jul-23 17:24N 45°39' W 122°45'0 0.0
2017-Jul-23 17:00N 45°39' W 122°45'0 0.0
2017-Jul-23 16:24N 45°39' W 122°45'0 0.0
2017-Jul-23 16:00N 45°39' W 122°45'0 0.0
2017-Jul-23 15:27N 45°39' W 122°45'0 0.0
2017-Jul-23 15:00N 45°39' W 122°45'0 0.0
2017-Jul-23 14:30N 45°39' W 122°45'0 0.0
2017-Jul-23 13:57N 45°39' W 122°45'0 0.0
2017-Jul-23 13:27N 45°39' W 122°45'0 0.0
2017-Jul-23 13:00N 45°39' W 122°45'0 0.0
2017-Jul-23 12:27N 45°39' W 122°45'0 0.0
2017-Jul-23 12:00N 45°39' W 122°45'0 0.0
2017-Jul-23 11:30N 45°39' W 122°45'0 0.0
2017-Jul-23 10:57N 45°39' W 122°45'0 0.0
2017-Jul-23 10:27N 45°39' W 122°45'0 0.0
2017-Jul-23 10:00N 45°39' W 122°45'0 0.0
2017-Jul-23 09:30N 45°39' W 122°45'0 0.0
2017-Jul-23 08:57N 45°39' W 122°45'0 0.0
2017-Jul-23 08:15N 45°39' W 122°45'0 0.0
2017-Jul-23 08:00N 45°39' W 122°45'0 0.0
2017-Jul-23 07:27N 45°39' W 122°45'0 0.0
2017-Jul-23 06:48N 45°39' W 122°45'0 0.0
2017-Jul-23 06:24N 45°39' W 122°45'0 0.0
2017-Jul-23 05:57N 45°39' W 122°45'0 0.0
2017-Jul-23 05:30N 45°39' W 122°45'0 0.0
2017-Jul-23 04:48N 45°39' W 122°45'0 0.0
2017-Jul-23 04:27N 45°39' W 122°45'0 0.0
2017-Jul-23 03:54N 45°39' W 122°45'0 0.0
2017-Jul-23 03:30N 45°39' W 122°45'0 0.0
2017-Jul-23 02:57N 45°39' W 122°45'1 1.8
2017-Jul-23 02:30N 45°39' W 122°46'1 1.1
2017-Jul-23 01:58N 45°38' W 122°47'3 6.9
2017-Jul-23 01:31N 45°35' W 122°46'4 8.5
2017-Jul-23 01:00N 45°32' W 122°41'0 0.8
2017-Jul-23 00:26N 45°32' W 122°40'0 0.1
2017-Jul-23 00:00N 45°32' W 122°41'3 4.4
2017-Jul-22 23:24N 45°34' W 122°44'0 0.0
2017-Jul-22 23:00N 45°34' W 122°44'0 0.0
2017-Jul-22 22:30N 45°34' W 122°44'0 0.0
2017-Jul-22 21:54N 45°34' W 122°44'0 0.0
2017-Jul-22 21:27N 45°34' W 122°44'3 7.2
2017-Jul-22 21:00N 45°36' W 122°47'3 6.6
2017-Jul-22 20:30N 45°39' W 122°46'1 1.4
2017-Jul-22 19:57N 45°39' W 122°45'0 0.0
2017-Jul-22 19:27N 45°39' W 122°45'2 3.3
2017-Jul-22 18:59N 45°38' W 122°43'0 0.0
2017-Jul-22 18:20N 45°38' W 122°43'0 0.0
2017-Jul-22 17:44N 45°38' W 122°43'0 0.5
2017-Jul-22 17:30N 45°38' W 122°43'1 2.7
2017-Jul-22 16:58N 45°39' W 122°45'0 0.0
2017-Jul-22 16:19N 45°39' W 122°45'0 0.0
2017-Jul-22 15:58N 45°39' W 122°45'0 0.0
2017-Jul-22 15:25N 45°39' W 122°45'0 0.0
2017-Jul-22 14:55N 45°39' W 122°45'0 0.0
2017-Jul-22 13:52N 45°39' W 122°45'0 0.0
2017-Jul-22 13:25N 45°39' W 122°45'0 0.0
2017-Jul-22 12:58N 45°39' W 122°45'0 0.0
2017-Jul-22 12:25N 45°39' W 122°45'0 0.0
2017-Jul-22 11:55N 45°39' W 122°45'0 0.0
2017-Jul-22 11:19N 45°39' W 122°45'0 0.0
2017-Jul-22 10:58N 45°39' W 122°45'0 0.0
2017-Jul-22 10:28N 45°39' W 122°45'0 0.0
2017-Jul-22 09:55N 45°39' W 122°45'0 0.0
2017-Jul-22 09:28N 45°39' W 122°45'0 0.0
2017-Jul-22 08:58N 45°39' W 122°45'0 0.0
2017-Jul-22 08:28N 45°39' W 122°45'0 0.0
2017-Jul-22 07:58N 45°39' W 122°45'0 0.0
2017-Jul-22 07:28N 45°39' W 122°45'0 0.0
2017-Jul-22 06:55N 45°39' W 122°45'0 1.1
2017-Jul-22 06:30N 45°39' W 122°45'2 4.4
2017-Jul-22 06:00N 45°38' W 122°42'1 1.0
2017-Jul-22 05:30N 45°38' W 122°42'1 3.0
2017-Jul-22 05:00N 45°39' W 122°44'1 1.4
2017-Jul-22 04:30N 45°38' W 122°43'1 1.6
2017-Jul-22 04:01N 45°39' W 122°44'1 2.5
2017-Jul-22 03:31N 45°39' W 122°46'4 8.1
2017-Jul-22 03:00N 45°35' W 122°45'1 2.3
2017-Jul-22 02:30N 45°34' W 122°44'0 0.5
2017-Jul-22 02:00N 45°34' W 122°44'1 1.2
2017-Jul-22 01:30N 45°35' W 122°45'0 0.5
2017-Jul-22 01:01N 45°35' W 122°45'2 4.7
2017-Jul-22 00:30N 45°37' W 122°47'3 5.2
2017-Jul-22 00:00N 45°39' W 122°46'1 1.6
2017-Jul-21 23:30N 45°39' W 122°45'0 0.0
2017-Jul-21 23:00N 45°39' W 122°45'0 0.0
2017-Jul-21 22:20N 45°39' W 122°45'0 0.0
2017-Jul-21 21:50N 45°39' W 122°45'0 0.0
2017-Jul-21 21:29N 45°39' W 122°45'0 0.0
2017-Jul-21 20:56N 45°39' W 122°45'0 0.0
2017-Jul-21 20:29N 45°39' W 122°45'0 0.0
2017-Jul-21 19:55N 45°39' W 122°45'0 0.0
2017-Jul-21 19:28N 45°39' W 122°45'0 0.0
2017-Jul-21 18:59N 45°39' W 122°45'0 0.0
2017-Jul-21 18:29N 45°39' W 122°45'0 0.0
2017-Jul-21 17:22N 45°39' W 122°45'0 0.0
2017-Jul-21 16:49N 45°39' W 122°45'0 0.0
2017-Jul-21 16:28N 45°39' W 122°45'0 0.0
2017-Jul-21 15:58N 45°39' W 122°45'0 0.0
2017-Jul-21 15:25N 45°39' W 122°45'0 0.0
2017-Jul-21 14:58N 45°39' W 122°45'0 0.0
2017-Jul-21 14:16N 45°39' W 122°45'0 0.0
2017-Jul-21 13:58N 45°39' W 122°45'0 0.0
2017-Jul-21 13:28N 45°39' W 122°45'0 0.0
2017-Jul-21 12:58N 45°39' W 122°45'0 0.0
2017-Jul-21 12:30N 45°39' W 122°45'1 2.4
2017-Jul-21 12:00N 45°38' W 122°47'1 1.9
2017-Jul-21 11:29N 45°39' W 122°46'1 1.7
2017-Jul-21 11:00N 45°39' W 122°45'0 0.0
2017-Jul-21 10:24N 45°39' W 122°45'0 0.0
2017-Jul-21 09:57N 45°39' W 122°45'0 0.0
2017-Jul-21 09:30N 45°39' W 122°45'0 0.0
2017-Jul-21 09:00N 45°39' W 122°45'0 0.0
2017-Jul-21 08:24N 45°39' W 122°45'0 0.0
2017-Jul-21 07:57N 45°39' W 122°45'0 0.0
2017-Jul-21 07:30N 45°39' W 122°45'0 0.0
2017-Jul-21 06:54N 45°39' W 122°45'0 0.0
2017-Jul-21 06:24N 45°39' W 122°45'0 0.0
2017-Jul-21 06:00N 45°39' W 122°45'0 0.0
2017-Jul-21 05:30N 45°39' W 122°45'0 0.0
2017-Jul-21 05:00N 45°39' W 122°45'0 0.0
2017-Jul-21 04:27N 45°39' W 122°45'0 0.0
2017-Jul-21 04:00N 45°39' W 122°45'0 0.0
2017-Jul-21 03:30N 45°39' W 122°45'0 0.0
2017-Jul-21 02:57N 45°39' W 122°45'0 0.0
2017-Jul-21 02:30N 45°39' W 122°45'0 0.0
2017-Jul-21 01:54N 45°39' W 122°45'0 0.0
2017-Jul-21 01:27N 45°39' W 122°45'0 0.0
2017-Jul-21 00:57N 45°39' W 122°45'0 0.0
2017-Jul-21 00:30N 45°39' W 122°45'0 0.0
2017-Jul-21 00:00N 45°39' W 122°45'0 0.0
2017-Jul-20 23:30N 45°39' W 122°45'0 0.0
2017-Jul-20 23:00N 45°39' W 122°45'0 0.0
2017-Jul-20 22:27N 45°39' W 122°45'0 0.0
2017-Jul-20 22:00N 45°39' W 122°45'0 0.0
2017-Jul-20 21:27N 45°39' W 122°45'0 0.0
2017-Jul-20 20:57N 45°39' W 122°45'0 0.0
2017-Jul-20 20:30N 45°39' W 122°45'0 0.0
2017-Jul-20 20:00N 45°39' W 122°45'0 0.0
2017-Jul-20 19:30N 45°39' W 122°45'0 0.0
2017-Jul-20 18:57N 45°39' W 122°45'0 0.0
2017-Jul-20 18:27N 45°39' W 122°45'0 0.0
2017-Jul-20 18:00N 45°39' W 122°45'0 0.0
2017-Jul-20 17:24N 45°39' W 122°45'1 1.8
2017-Jul-20 16:36N 45°38' W 122°43'0 0.0
2017-Jul-20 16:26N 45°38' W 122°43'0 0.2
2017-Jul-20 15:59N 45°38' W 122°43'1 1.9
2017-Jul-20 15:28N 45°39' W 122°44'0 0.1
2017-Jul-20 14:49N 45°39' W 122°44'0 0.5
2017-Jul-20 14:00N 45°39' W 122°45'0 0.3
2017-Jul-20 13:29N 45°39' W 122°45'0 0.0
2017-Jul-20 12:59N 45°39' W 122°45'0 0.0
2017-Jul-20 12:29N 45°39' W 122°45'0 0.0
2017-Jul-20 11:59N 45°39' W 122°45'0 0.0
2017-Jul-20 11:26N 45°39' W 122°45'0 0.0
2017-Jul-20 10:59N 45°39' W 122°45'0 0.0
2017-Jul-20 10:26N 45°39' W 122°45'0 0.0
2017-Jul-20 09:59N 45°39' W 122°45'0 0.0
2017-Jul-20 09:23N 45°39' W 122°45'0 0.0
2017-Jul-20 08:59N 45°39' W 122°45'0 0.0
2017-Jul-20 08:29N 45°39' W 122°45'0 0.0
2017-Jul-20 07:59N 45°39' W 122°45'0 0.0
2017-Jul-20 07:23N 45°39' W 122°45'0 0.0
2017-Jul-20 06:59N 45°39' W 122°45'2 4.0
2017-Jul-20 06:30N 45°38' W 122°42'0 0.0
2017-Jul-20 06:00N 45°38' W 122°42'0 0.6
2017-Jul-20 05:30N 45°38' W 122°43'0 0.7
2017-Jul-20 05:00N 45°38' W 122°42'0 0.0
2017-Jul-20 04:31N 45°38' W 122°42'1 1.5
2017-Jul-20 04:00N 45°38' W 122°43'1 2.5
2017-Jul-20 03:30N 45°39' W 122°45'0 0.0
2017-Jul-20 03:01N 45°39' W 122°45'0 0.0
2017-Jul-20 02:31N 45°39' W 122°45'3 5.1
2017-Jul-20 02:00N 45°38' W 122°42'0 0.1
2017-Jul-20 01:30N 45°38' W 122°42'1 1.8
2017-Jul-20 01:00N 45°38' W 122°43'1 1.7
2017-Jul-20 00:30N 45°38' W 122°42'0 0.0
2017-Jul-20 00:00N 45°38' W 122°42'2 3.7
2017-Jul-19 23:30N 45°39' W 122°44'1 1.4
2017-Jul-19 23:00N 45°39' W 122°45'0 0.0
2017-Jul-19 22:30N 45°39' W 122°45'0 0.0
2017-Jul-19 22:00N 45°39' W 122°45'0 0.0
2017-Jul-19 21:30N 45°39' W 122°45'0 0.0
2017-Jul-19 21:00N 45°39' W 122°45'0 0.0
2017-Jul-19 20:21N 45°39' W 122°45'0 0.0
2017-Jul-19 20:00N 45°39' W 122°45'0 0.0
2017-Jul-19 19:27N 45°39' W 122°45'0 0.0
2017-Jul-19 18:57N 45°39' W 122°45'0 0.0
2017-Jul-19 18:30N 45°39' W 122°45'0 0.0
2017-Jul-19 18:00N 45°39' W 122°45'0 0.0
2017-Jul-19 17:30N 45°39' W 122°45'0 0.0
2017-Jul-19 17:00N 45°39' W 122°45'0 0.0
2017-Jul-19 16:27N 45°39' W 122°45'0 0.0
2017-Jul-19 16:00N 45°39' W 122°45'0 0.0
2017-Jul-19 15:27N 45°39' W 122°45'0 0.0
2017-Jul-19 14:57N 45°39' W 122°45'0 0.0
2017-Jul-19 14:27N 45°39' W 122°45'0 0.0
2017-Jul-19 14:00N 45°39' W 122°45'0 0.0
2017-Jul-19 13:27N 45°39' W 122°45'0 0.0
2017-Jul-19 12:57N 45°39' W 122°45'0 0.0
2017-Jul-19 12:30N 45°39' W 122°45'0 0.0
2017-Jul-19 11:57N 45°39' W 122°45'0 0.0
2017-Jul-19 11:30N 45°39' W 122°45'0 0.0
2017-Jul-19 10:57N 45°39' W 122°45'0 0.0
2017-Jul-19 10:30N 45°39' W 122°45'0 0.0
2017-Jul-19 10:00N 45°39' W 122°45'0 0.0
2017-Jul-19 09:21N 45°39' W 122°45'0 0.0
2017-Jul-19 08:57N 45°39' W 122°45'0 0.0
2017-Jul-19 08:30N 45°39' W 122°45'0 0.0
2017-Jul-19 08:00N 45°39' W 122°45'0 0.0
2017-Jul-19 07:30N 45°39' W 122°45'0 0.0
2017-Jul-19 07:00N 45°39' W 122°45'0 0.0
2017-Jul-19 06:27N 45°39' W 122°45'0 0.0
2017-Jul-19 05:57N 45°39' W 122°45'0 0.0
2017-Jul-19 05:30N 45°39' W 122°45'0 0.0
2017-Jul-19 04:54N 45°39' W 122°45'0 0.0
2017-Jul-19 04:24N 45°39' W 122°45'0 0.0
2017-Jul-19 04:00N 45°39' W 122°45'0 0.0
2017-Jul-19 03:30N 45°39' W 122°45'0 0.0
2017-Jul-19 03:00N 45°39' W 122°45'0 0.0
2017-Jul-19 02:30N 45°39' W 122°45'0 0.0
2017-Jul-19 02:00N 45°39' W 122°45'0 0.0
2017-Jul-19 01:30N 45°39' W 122°45'0 0.0
2017-Jul-19 00:51N 45°39' W 122°45'0 0.0
2017-Jul-19 00:30N 45°39' W 122°45'0 0.0
2017-Jul-19 00:00N 45°39' W 122°45'0 0.0
2017-Jul-18 23:30N 45°39' W 122°45'0 0.0
2017-Jul-18 22:57N 45°39' W 122°45'0 0.0
2017-Jul-18 22:30N 45°39' W 122°45'0 0.0
2017-Jul-18 21:57N 45°39' W 122°45'0 0.0
2017-Jul-18 21:30N 45°39' W 122°45'1 1.5
2017-Jul-18 20:57N 45°38' W 122°44'1 1.5
2017-Jul-18 20:30N 45°39' W 122°45'0 0.3
2017-Jul-18 20:00N 45°39' W 122°45'0 0.0
2017-Jul-18 19:18N 45°39' W 122°45'0 0.0
2017-Jul-18 19:00N 45°39' W 122°45'0 0.0
2017-Jul-18 18:06N 45°39' W 122°45'0 0.0
2017-Jul-18 18:00N 45°39' W 122°45'0 0.0
2017-Jul-18 17:30N 45°39' W 122°45'0 0.0
2017-Jul-18 16:33N 45°39' W 122°45'0 0.0
2017-Jul-18 16:30N 45°39' W 122°45'0 0.0
2017-Jul-18 16:00N 45°39' W 122°45'0 0.0
2017-Jul-18 15:27N 45°39' W 122°45'0 0.0
2017-Jul-18 15:01N 45°39' W 122°45'0 0.0
2017-Jul-18 13:58N 45°39' W 122°45'0 0.0
2017-Jul-18 13:30N 45°39' W 122°45'0 0.0
2017-Jul-18 13:01N 45°39' W 122°45'0 0.0
2017-Jul-18 12:27N 45°39' W 122°45'0 0.0
2017-Jul-18 12:00N 45°39' W 122°45'0 0.0
2017-Jul-18 11:24N 45°39' W 122°45'0 0.0
2017-Jul-18 11:01N 45°39' W 122°45'0 0.0
2017-Jul-18 10:30N 45°39' W 122°45'0 0.0
2017-Jul-18 10:00N 45°39' W 122°45'0 0.0
2017-Jul-18 09:19N 45°39' W 122°45'0 0.0
2017-Jul-18 09:00N 45°39' W 122°45'0 0.0
2017-Jul-18 08:18N 45°39' W 122°45'0 0.0
2017-Jul-18 07:51N 45°39' W 122°45'0 0.0
2017-Jul-18 07:30N 45°39' W 122°45'0 0.0
2017-Jul-18 06:54N 45°39' W 122°45'0 0.0
2017-Jul-18 06:31N 45°39' W 122°45'0 0.0
2017-Jul-18 06:00N 45°39' W 122°45'0 0.0
2017-Jul-18 05:30N 45°39' W 122°45'0 0.0
2017-Jul-18 05:00N 45°39' W 122°45'0 0.0
2017-Jul-18 04:21N 45°39' W 122°45'0 0.0
2017-Jul-18 04:00N 45°39' W 122°45'0 0.0
2017-Jul-18 03:30N 45°39' W 122°45'0 0.0
2017-Jul-18 02:48N 45°39' W 122°45'0 0.0
2017-Jul-18 02:30N 45°39' W 122°45'0 0.0
2017-Jul-18 01:54N 45°39' W 122°45'0 0.0
2017-Jul-18 01:27N 45°39' W 122°45'0 0.0
2017-Jul-18 01:00N 45°39' W 122°45'0 0.0
2017-Jul-18 00:12N 45°39' W 122°45'0 0.0
2017-Jul-17 23:58N 45°39' W 122°45'0 0.0
2017-Jul-17 23:27N 45°39' W 122°45'1 1.4
2017-Jul-17 23:01N 45°39' W 122°44'2 3.7
2017-Jul-17 22:27N 45°38' W 122°42'1 2.5
2017-Jul-17 21:58N 45°38' W 122°43'0 0.0
2017-Jul-17 21:25N 45°38' W 122°43'2 2.8
2017-Jul-17 20:53N 45°39' W 122°45'0 0.0
2017-Jul-17 20:20N 45°39' W 122°45'0 1.1
2017-Jul-17 20:00N 45°39' W 122°45'1 2.2
2017-Jul-17 19:30N 45°38' W 122°47'0 0.2
2017-Jul-17 18:55N 45°38' W 122°47'0 0.1
2017-Jul-17 18:29N 45°38' W 122°47'4 8.0
2017-Jul-17 18:00N 45°35' W 122°45'1 2.0
2017-Jul-17 17:30N 45°34' W 122°44'3 6.1
2017-Jul-17 17:00N 45°32' W 122°40'0 0.6
2017-Jul-17 16:28N 45°32' W 122°41'510.7
2017-Jul-17 16:00N 45°35' W 122°46'1 1.0
2017-Jul-17 15:28N 45°36' W 122°47'2 4.3
2017-Jul-17 15:00N 45°38' W 122°47'2 3.2
2017-Jul-17 14:26N 45°39' W 122°45'0 0.0
2017-Jul-17 13:59N 45°39' W 122°45'0 0.0
2017-Jul-17 13:29N 45°39' W 122°45'0 0.0
2017-Jul-17 12:56N 45°39' W 122°45'0 0.0
2017-Jul-17 12:29N 45°39' W 122°45'0 0.0
2017-Jul-17 11:53N 45°39' W 122°45'0 0.8
2017-Jul-17 11:30N 45°39' W 122°45'3 5.9
2017-Jul-17 11:01N 45°36' W 122°47'0 0.0
2017-Jul-17 10:30N 45°36' W 122°47'0 1.0
2017-Jul-17 10:00N 45°36' W 122°47'3 5.4
2017-Jul-17 09:30N 45°39' W 122°46'1 1.3
2017-Jul-17 08:56N 45°39' W 122°45'0 0.0
2017-Jul-17 08:23N 45°39' W 122°45'0 0.0
2017-Jul-17 07:53N 45°39' W 122°45'0 0.0
2017-Jul-17 07:26N 45°39' W 122°45'0 0.0
2017-Jul-17 06:56N 45°39' W 122°45'0 0.0
2017-Jul-17 06:29N 45°39' W 122°45'0 0.0
2017-Jul-17 05:59N 45°39' W 122°45'0 0.0
2017-Jul-17 05:23N 45°39' W 122°45'0 0.0
2017-Jul-17 04:59N 45°39' W 122°45'0 1.0
2017-Jul-17 04:30N 45°39' W 122°44'1 2.2
2017-Jul-17 04:00N 45°38' W 122°43'1 1.1
2017-Jul-17 03:30N 45°39' W 122°44'0 0.8
2017-Jul-17 03:00N 45°39' W 122°44'1 1.2
2017-Jul-17 02:28N 45°39' W 122°45'0 0.0
2017-Jul-17 01:58N 45°39' W 122°45'0 0.0
2017-Jul-17 01:28N 45°39' W 122°45'0 0.0
2017-Jul-17 00:58N 45°39' W 122°45'0 0.0
2017-Jul-16 23:43N 45°39' W 122°45'0 0.0
2017-Jul-16 23:28N 45°39' W 122°45'0 0.0
2017-Jul-16 22:58N 45°39' W 122°45'0 0.0
2017-Jul-16 22:28N 45°39' W 122°45'0 0.0
2017-Jul-16 21:58N 45°39' W 122°45'0 0.0
2017-Jul-16 21:28N 45°39' W 122°45'0 0.0
2017-Jul-16 20:58N 45°39' W 122°45'0 0.0
2017-Jul-16 20:19N 45°39' W 122°45'0 0.0
2017-Jul-16 19:58N 45°39' W 122°45'0 0.0
2017-Jul-16 19:28N 45°39' W 122°45'0 0.0
2017-Jul-16 18:52N 45°39' W 122°45'0 0.0
2017-Jul-16 18:28N 45°39' W 122°45'2 5.3
2017-Jul-16 18:00N 45°38' W 122°42'0 0.0
2017-Jul-16 17:30N 45°38' W 122°42'3 4.2
2017-Jul-16 16:54N 45°39' W 122°45'0 0.0
2017-Jul-16 16:30N 45°39' W 122°45'0 0.0
2017-Jul-16 15:51N 45°39' W 122°45'0 0.0
2017-Jul-16 15:30N 45°39' W 122°45'0 0.0
2017-Jul-16 14:54N 45°39' W 122°45'0 0.0
2017-Jul-16 14:30N 45°39' W 122°45'0 0.0
2017-Jul-16 14:00N 45°39' W 122°45'0 0.0
2017-Jul-16 13:18N 45°39' W 122°45'0 0.0
2017-Jul-16 13:00N 45°39' W 122°45'0 0.0
2017-Jul-16 12:27N 45°39' W 122°45'0 0.0
2017-Jul-16 12:00N 45°39' W 122°45'0 0.0
2017-Jul-16 11:24N 45°39' W 122°45'0 0.0
2017-Jul-16 10:57N 45°39' W 122°45'0 0.0
2017-Jul-16 10:30N 45°39' W 122°45'0 0.0
2017-Jul-16 10:00N 45°39' W 122°45'0 0.0
2017-Jul-16 09:27N 45°39' W 122°45'0 0.0
2017-Jul-16 09:00N 45°39' W 122°45'0 0.0
2017-Jul-16 08:30N 45°39' W 122°45'0 0.0
2017-Jul-16 08:00N 45°39' W 122°45'1 1.6
2017-Jul-16 07:30N 45°39' W 122°46'3 6.7
2017-Jul-16 07:00N 45°36' W 122°47'3 5.1
2017-Jul-16 06:24N 45°34' W 122°44'1 1.2
2017-Jul-16 05:54N 45°34' W 122°44'1 1.4
2017-Jul-16 05:30N 45°35' W 122°45'1 2.2
2017-Jul-16 05:00N 45°34' W 122°44'0 0.7
2017-Jul-16 04:29N 45°34' W 122°44'1 1.8
2017-Jul-16 04:00N 45°35' W 122°45'3 5.9
2017-Jul-16 03:30N 45°37' W 122°47'2 3.2
2017-Jul-16 02:50N 45°39' W 122°45'0 0.0
2017-Jul-16 02:29N 45°39' W 122°45'0 0.0
2017-Jul-16 01:59N 45°39' W 122°45'0 0.0
2017-Jul-16 01:26N 45°39' W 122°45'0 0.0
2017-Jul-16 00:56N 45°39' W 122°45'0 0.0
2017-Jul-16 00:26N 45°39' W 122°45'0 0.1
2017-Jul-16 00:00N 45°39' W 122°45'2 4.4
2017-Jul-15 23:29N 45°38' W 122°42'0 0.1
2017-Jul-15 22:59N 45°38' W 122°42'2 4.5
2017-Jul-15 22:28N 45°39' W 122°45'0 0.0
2017-Jul-15 21:58N 45°39' W 122°45'0 0.0
2017-Jul-15 20:17N 45°39' W 122°45'0 0.0
2017-Jul-15 19:46N 45°39' W 122°45'0 0.0
2017-Jul-15 18:19N 45°39' W 122°45'0 0.0
2017-Jul-15 17:55N 45°39' W 122°45'0 0.0
2017-Jul-15 17:13N 45°39' W 122°45'0 0.0
2017-Jul-15 16:28N 45°39' W 122°45'0 0.0
2017-Jul-15 15:40N 45°39' W 122°45'0 0.0
2017-Jul-15 15:28N 45°39' W 122°45'0 0.0
2017-Jul-15 14:52N 45°39' W 122°45'0 0.0
2017-Jul-15 13:52N 45°39' W 122°45'0 0.0
2017-Jul-15 13:28N 45°39' W 122°45'0 0.0
2017-Jul-15 12:58N 45°39' W 122°45'0 0.0
2017-Jul-15 12:07N 45°39' W 122°45'0 0.0
2017-Jul-15 11:58N 45°39' W 122°45'0 0.0
2017-Jul-15 11:25N 45°39' W 122°45'0 0.0
2017-Jul-15 10:43N 45°39' W 122°45'0 0.0
2017-Jul-15 10:28N 45°39' W 122°45'0 0.0
2017-Jul-15 09:58N 45°39' W 122°45'0 0.0
2017-Jul-15 09:25N 45°39' W 122°45'0 0.0
2017-Jul-15 08:55N 45°39' W 122°45'0 0.0
2017-Jul-15 08:28N 45°39' W 122°45'0 0.0
2017-Jul-15 07:58N 45°39' W 122°45'0 0.0
2017-Jul-15 07:22N 45°39' W 122°45'0 0.0
2017-Jul-15 06:58N 45°39' W 122°45'0 0.0
2017-Jul-15 06:22N 45°39' W 122°45'0 0.0
2017-Jul-15 05:46N 45°39' W 122°45'0 0.0
2017-Jul-15 05:22N 45°39' W 122°45'0 0.0
2017-Jul-15 04:58N 45°39' W 122°45'0 0.8
2017-Jul-15 04:21N 45°39' W 122°45'0 0.3
2017-Jul-15 04:01N 45°39' W 122°44'0 0.0
2017-Jul-15 03:31N 45°39' W 122°44'0 0.2
2017-Jul-15 03:00N 45°39' W 122°45'0 0.3
2017-Jul-15 02:31N 45°39' W 122°44'0 0.1
2017-Jul-15 02:00N 45°39' W 122°44'0 0.2
2017-Jul-15 01:31N 45°39' W 122°45'1 1.2
2017-Jul-15 01:00N 45°39' W 122°45'3 5.3
2017-Jul-15 00:30N 45°38' W 122°42'0 0.0
2017-Jul-15 00:00N 45°38' W 122°42'2 3.1
2017-Jul-14 23:30N 45°38' W 122°44'1 1.9
2017-Jul-14 23:00N 45°39' W 122°45'0 0.0
2017-Jul-14 22:30N 45°39' W 122°45'0 0.0
2017-Jul-14 22:00N 45°39' W 122°45'0 0.0
2017-Jul-14 21:30N 45°39' W 122°45'0 0.0
2017-Jul-14 21:00N 45°39' W 122°45'0 0.0
2017-Jul-14 20:18N 45°39' W 122°45'0 0.0
2017-Jul-14 19:57N 45°39' W 122°45'0 0.6
2017-Jul-14 19:11N 45°39' W 122°45'0 0.7
2017-Jul-14 18:56N 45°39' W 122°44'0 0.0
2017-Jul-14 18:29N 45°39' W 122°44'0 0.2
2017-Jul-14 18:00N 45°39' W 122°44'1 0.8
2017-Jul-14 17:21N 45°39' W 122°45'0 0.0
2017-Jul-14 17:00N 45°39' W 122°45'0 0.0
2017-Jul-14 16:30N 45°39' W 122°45'0 0.0
2017-Jul-14 15:51N 45°39' W 122°45'0 0.1
2017-Jul-14 15:30N 45°39' W 122°45'0 0.0
2017-Jul-14 15:00N 45°39' W 122°45'0 0.0
2017-Jul-14 14:03N 45°39' W 122°45'0 0.0
2017-Jul-14 13:51N 45°39' W 122°45'0 0.0
2017-Jul-14 13:18N 45°39' W 122°45'1 4.5
2017-Jul-14 13:00N 45°40' W 122°46'1 2.7
2017-Jul-14 12:31N 45°39' W 122°45'0 0.0
2017-Jul-14 12:00N 45°39' W 122°45'0 0.0
2017-Jul-14 11:10N 45°39' W 122°45'0 0.0
2017-Jul-14 11:00N 45°39' W 122°45'0 0.0
2017-Jul-14 10:30N 45°39' W 122°45'0 0.0
2017-Jul-14 10:01N 45°39' W 122°45'0 0.0
2017-Jul-14 09:28N 45°39' W 122°45'0 0.0
2017-Jul-14 09:00N 45°39' W 122°45'0 0.0
2017-Jul-14 08:28N 45°39' W 122°45'0 0.0
2017-Jul-14 08:00N 45°39' W 122°45'0 0.0
2017-Jul-14 07:27N 45°39' W 122°45'1 2.6
2017-Jul-14 07:00N 45°38' W 122°47'0 0.0
2017-Jul-14 06:31N 45°38' W 122°47'  
Track history (hours):
 
Tides and Currents Weather Stations Pressure Air Temp Water Temp Dewpoint Dewpoint Depression Visibility Wind Speed Wind Dir Waves Ship Positions

Portland

Owner: Shaver Transportation Company, Portland, OR. More information available from US FCC via Universal Licensing System and Coast Guard Vessel Documentation Center.

Last reported at 2017-Jul-24 06:21 UTC. Time now 2017-Jul-24 06:37 UTC.
Position N 45°39' W 122°45'.

Length 27 m; draft 4 m.

Type: Towing. MMSI: 367315814.

Date/timePositionNaut miles runAvg speedWind from/ knotsBaromVisibWave heightAir tempDewpointWater temp
2017-Jul-24 06:21N 45°39' W 122°45'0 0.0
2017-Jul-24 05:48N 45°39' W 122°45'0 0.0
2017-Jul-24 05:30N 45°39' W 122°45'0 0.0
2017-Jul-24 04:54N 45°39' W 122°45'0 0.0
2017-Jul-24 04:30N 45°39' W 122°45'0 0.0
2017-Jul-24 03:57N 45°39' W 122°45'0 0.0
2017-Jul-24 03:30N 45°39' W 122°45'0 0.0
2017-Jul-24 02:57N 45°39' W 122°45'1 1.6
2017-Jul-24 02:23N 45°38' W 122°44'0 0.3
2017-Jul-24 02:00N 45°38' W 122°44'1 1.1
2017-Jul-24 01:30N 45°38' W 122°45'0 0.6
2017-Jul-24 01:00N 45°39' W 122°45'0 0.0
2017-Jul-24 00:24N 45°39' W 122°45'0 0.0
2017-Jul-23 23:57N 45°39' W 122°45'0 0.0
2017-Jul-23 23:27N 45°39' W 122°45'0 0.0
2017-Jul-23 22:57N 45°39' W 122°45'0 0.0
2017-Jul-23 22:30N 45°39' W 122°45'0 0.0
2017-Jul-23 22:00N 45°39' W 122°45'0 0.0
2017-Jul-23 21:30N 45°39' W 122°45'0 0.0
2017-Jul-23 21:00N 45°39' W 122°45'0 0.0
2017-Jul-23 20:30N 45°39' W 122°45'0 0.0
2017-Jul-23 20:00N 45°39' W 122°45'0 0.0
2017-Jul-23 19:30N 45°39' W 122°45'0 0.0
2017-Jul-23 18:57N 45°39' W 122°45'0 0.0
2017-Jul-23 18:30N 45°39' W 122°45'0 0.0
2017-Jul-23 18:00N 45°39' W 122°45'0 0.0
2017-Jul-23 17:24N 45°39' W 122°45'0 0.0
2017-Jul-23 17:00N 45°39' W 122°45'0 0.0
2017-Jul-23 16:24N 45°39' W 122°45'0 0.0
2017-Jul-23 16:00N 45°39' W 122°45'0 0.0
2017-Jul-23 15:27N 45°39' W 122°45'0 0.0
2017-Jul-23 15:00N 45°39' W 122°45'0 0.0
2017-Jul-23 14:30N 45°39' W 122°45'0 0.0
2017-Jul-23 13:57N 45°39' W 122°45'0 0.0
2017-Jul-23 13:27N 45°39' W 122°45'0 0.0
2017-Jul-23 13:00N 45°39' W 122°45'0 0.0
2017-Jul-23 12:27N 45°39' W 122°45'0 0.0
2017-Jul-23 12:00N 45°39' W 122°45'0 0.0
2017-Jul-23 11:30N 45°39' W 122°45'0 0.0
2017-Jul-23 10:57N 45°39' W 122°45'0 0.0
2017-Jul-23 10:27N 45°39' W 122°45'0 0.0
2017-Jul-23 10:00N 45°39' W 122°45'0 0.0
2017-Jul-23 09:30N 45°39' W 122°45'0 0.0
2017-Jul-23 08:57N 45°39' W 122°45'0 0.0
2017-Jul-23 08:15N 45°39' W 122°45'0 0.0
2017-Jul-23 08:00N 45°39' W 122°45'0 0.0
2017-Jul-23 07:27N 45°39' W 122°45'0 0.0
2017-Jul-23 06:48N 45°39' W 122°45'0 0.0
2017-Jul-23 06:24N 45°39' W 122°45'0 0.0
2017-Jul-23 05:57N 45°39' W 122°45'0 0.0
2017-Jul-23 05:30N 45°39' W 122°45'0 0.0
2017-Jul-23 04:48N 45°39' W 122°45'0 0.0
2017-Jul-23 04:27N 45°39' W 122°45'0 0.0
2017-Jul-23 03:54N 45°39' W 122°45'0 0.0
2017-Jul-23 03:30N 45°39' W 122°45'0 0.0
2017-Jul-23 02:57N 45°39' W 122°45'1 1.8
2017-Jul-23 02:30N 45°39' W 122°46'1 1.1
2017-Jul-23 01:58N 45°38' W 122°47'3 6.9
2017-Jul-23 01:31N 45°35' W 122°46'4 8.5
2017-Jul-23 01:00N 45°32' W 122°41'0 0.8
2017-Jul-23 00:26N 45°32' W 122°40'0 0.1
2017-Jul-23 00:00N 45°32' W 122°41'3 4.4
2017-Jul-22 23:24N 45°34' W 122°44'0 0.0
2017-Jul-22 23:00N 45°34' W 122°44'0 0.0
2017-Jul-22 22:30N 45°34' W 122°44'0 0.0
2017-Jul-22 21:54N 45°34' W 122°44'0 0.0
2017-Jul-22 21:27N 45°34' W 122°44'3 7.2
2017-Jul-22 21:00N 45°36' W 122°47'3 6.6
2017-Jul-22 20:30N 45°39' W 122°46'1 1.4
2017-Jul-22 19:57N 45°39' W 122°45'0 0.0
2017-Jul-22 19:27N 45°39' W 122°45'2 3.3
2017-Jul-22 18:59N 45°38' W 122°43'0 0.0
2017-Jul-22 18:20N 45°38' W 122°43'0 0.0
2017-Jul-22 17:44N 45°38' W 122°43'0 0.5
2017-Jul-22 17:30N 45°38' W 122°43'1 2.7
2017-Jul-22 16:58N 45°39' W 122°45'0 0.0
2017-Jul-22 16:19N 45°39' W 122°45'0 0.0
2017-Jul-22 15:58N 45°39' W 122°45'0 0.0
2017-Jul-22 15:25N 45°39' W 122°45'0 0.0
2017-Jul-22 14:55N 45°39' W 122°45'0 0.0
2017-Jul-22 13:52N 45°39' W 122°45'0 0.0
2017-Jul-22 13:25N 45°39' W 122°45'0 0.0
2017-Jul-22 12:58N 45°39' W 122°45'0 0.0
2017-Jul-22 12:25N 45°39' W 122°45'0 0.0
2017-Jul-22 11:55N 45°39' W 122°45'0 0.0
2017-Jul-22 11:19N 45°39' W 122°45'0 0.0
2017-Jul-22 10:58N 45°39' W 122°45'0 0.0
2017-Jul-22 10:28N 45°39' W 122°45'0 0.0
2017-Jul-22 09:55N 45°39' W 122°45'0 0.0
2017-Jul-22 09:28N 45°39' W 122°45'0 0.0
2017-Jul-22 08:58N 45°39' W 122°45'0 0.0
2017-Jul-22 08:28N 45°39' W 122°45'0 0.0
2017-Jul-22 07:58N 45°39' W 122°45'0 0.0
2017-Jul-22 07:28N 45°39' W 122°45'0 0.0
2017-Jul-22 06:55N 45°39' W 122°45'0 1.1
2017-Jul-22 06:30N 45°39' W 122°45'2 4.4
2017-Jul-22 06:00N 45°38' W 122°42'1 1.0
2017-Jul-22 05:30N 45°38' W 122°42'1 3.0
2017-Jul-22 05:00N 45°39' W 122°44'1 1.4
2017-Jul-22 04:30N 45°38' W 122°43'1 1.6
2017-Jul-22 04:01N 45°39' W 122°44'1 2.5
2017-Jul-22 03:31N 45°39' W 122°46'4 8.1
2017-Jul-22 03:00N 45°35' W 122°45'1 2.3
2017-Jul-22 02:30N 45°34' W 122°44'0 0.5
2017-Jul-22 02:00N 45°34' W 122°44'1 1.2
2017-Jul-22 01:30N 45°35' W 122°45'0 0.5
2017-Jul-22 01:01N 45°35' W 122°45'2 4.7
2017-Jul-22 00:30N 45°37' W 122°47'3 5.2
2017-Jul-22 00:00N 45°39' W 122°46'1 1.6
2017-Jul-21 23:30N 45°39' W 122°45'0 0.0
2017-Jul-21 23:00N 45°39' W 122°45'0 0.0
2017-Jul-21 22:20N 45°39' W 122°45'0 0.0
2017-Jul-21 21:50N 45°39' W 122°45'0 0.0
2017-Jul-21 21:29N 45°39' W 122°45'0 0.0
2017-Jul-21 20:56N 45°39' W 122°45'0 0.0
2017-Jul-21 20:29N 45°39' W 122°45'0 0.0
2017-Jul-21 19:55N 45°39' W 122°45'0 0.0
2017-Jul-21 19:28N 45°39' W 122°45'0 0.0
2017-Jul-21 18:59N 45°39' W 122°45'0 0.0
2017-Jul-21 18:29N 45°39' W 122°45'0 0.0
2017-Jul-21 17:22N 45°39' W 122°45'0 0.0
2017-Jul-21 16:49N 45°39' W 122°45'0 0.0
2017-Jul-21 16:28N 45°39' W 122°45'0 0.0
2017-Jul-21 15:58N 45°39' W 122°45'0 0.0
2017-Jul-21 15:25N 45°39' W 122°45'0 0.0
2017-Jul-21 14:58N 45°39' W 122°45'0 0.0
2017-Jul-21 14:16N 45°39' W 122°45'0 0.0
2017-Jul-21 13:58N 45°39' W 122°45'0 0.0
2017-Jul-21 13:28N 45°39' W 122°45'0 0.0
2017-Jul-21 12:58N 45°39' W 122°45'0 0.0
2017-Jul-21 12:30N 45°39' W 122°45'1 2.4
2017-Jul-21 12:00N 45°38' W 122°47'1 1.9
2017-Jul-21 11:29N 45°39' W 122°46'1 1.7
2017-Jul-21 11:00N 45°39' W 122°45'0 0.0
2017-Jul-21 10:24N 45°39' W 122°45'0 0.0
2017-Jul-21 09:57N 45°39' W 122°45'0 0.0
2017-Jul-21 09:30N 45°39' W 122°45'0 0.0
2017-Jul-21 09:00N 45°39' W 122°45'0 0.0
2017-Jul-21 08:24N 45°39' W 122°45'0 0.0
2017-Jul-21 07:57N 45°39' W 122°45'0 0.0
2017-Jul-21 07:30N 45°39' W 122°45'0 0.0
2017-Jul-21 06:54N 45°39' W 122°45'0 0.0
2017-Jul-21 06:24N 45°39' W 122°45'0 0.0
2017-Jul-21 06:00N 45°39' W 122°45'0 0.0
2017-Jul-21 05:30N 45°39' W 122°45'0 0.0
2017-Jul-21 05:00N 45°39' W 122°45'0 0.0
2017-Jul-21 04:27N 45°39' W 122°45'0 0.0
2017-Jul-21 04:00N 45°39' W 122°45'0 0.0
2017-Jul-21 03:30N 45°39' W 122°45'0 0.0
2017-Jul-21 02:57N 45°39' W 122°45'0 0.0
2017-Jul-21 02:30N 45°39' W 122°45'0 0.0
2017-Jul-21 01:54N 45°39' W 122°45'0 0.0
2017-Jul-21 01:27N 45°39' W 122°45'0 0.0
2017-Jul-21 00:57N 45°39' W 122°45'0 0.0
2017-Jul-21 00:30N 45°39' W 122°45'0 0.0
2017-Jul-21 00:00N 45°39' W 122°45'0 0.0
2017-Jul-20 23:30N 45°39' W 122°45'0 0.0
2017-Jul-20 23:00N 45°39' W 122°45'0 0.0
2017-Jul-20 22:27N 45°39' W 122°45'0 0.0
2017-Jul-20 22:00N 45°39' W 122°45'0 0.0
2017-Jul-20 21:27N 45°39' W 122°45'0 0.0
2017-Jul-20 20:57N 45°39' W 122°45'0 0.0
2017-Jul-20 20:30N 45°39' W 122°45'0 0.0
2017-Jul-20 20:00N 45°39' W 122°45'0 0.0
2017-Jul-20 19:30N 45°39' W 122°45'0 0.0
2017-Jul-20 18:57N 45°39' W 122°45'0 0.0
2017-Jul-20 18:27N 45°39' W 122°45'0 0.0
2017-Jul-20 18:00N 45°39' W 122°45'0 0.0
2017-Jul-20 17:24N 45°39' W 122°45'1 1.8
2017-Jul-20 16:36N 45°38' W 122°43'0 0.0
2017-Jul-20 16:26N 45°38' W 122°43'0 0.2
2017-Jul-20 15:59N 45°38' W 122°43'1 1.9
2017-Jul-20 15:28N 45°39' W 122°44'0 0.1
2017-Jul-20 14:49N 45°39' W 122°44'0 0.5
2017-Jul-20 14:00N 45°39' W 122°45'0 0.3
2017-Jul-20 13:29N 45°39' W 122°45'0 0.0
2017-Jul-20 12:59N 45°39' W 122°45'0 0.0
2017-Jul-20 12:29N 45°39' W 122°45'0 0.0
2017-Jul-20 11:59N 45°39' W 122°45'0 0.0
2017-Jul-20 11:26N 45°39' W 122°45'0 0.0
2017-Jul-20 10:59N 45°39' W 122°45'0 0.0
2017-Jul-20 10:26N 45°39' W 122°45'0 0.0
2017-Jul-20 09:59N 45°39' W 122°45'0 0.0
2017-Jul-20 09:23N 45°39' W 122°45'0 0.0
2017-Jul-20 08:59N 45°39' W 122°45'0 0.0
2017-Jul-20 08:29N 45°39' W 122°45'0 0.0
2017-Jul-20 07:59N 45°39' W 122°45'0 0.0
2017-Jul-20 07:23N 45°39' W 122°45'0 0.0
2017-Jul-20 06:59N 45°39' W 122°45'2 4.0
2017-Jul-20 06:30N 45°38' W 122°42'0 0.0
2017-Jul-20 06:00N 45°38' W 122°42'0 0.6
2017-Jul-20 05:30N 45°38' W 122°43'0 0.7
2017-Jul-20 05:00N 45°38' W 122°42'0 0.0
2017-Jul-20 04:31N 45°38' W 122°42'1 1.5
2017-Jul-20 04:00N 45°38' W 122°43'1 2.5
2017-Jul-20 03:30N 45°39' W 122°45'0 0.0
2017-Jul-20 03:01N 45°39' W 122°45'0 0.0
2017-Jul-20 02:31N 45°39' W 122°45'3 5.1
2017-Jul-20 02:00N 45°38' W 122°42'0 0.1
2017-Jul-20 01:30N 45°38' W 122°42'1 1.8
2017-Jul-20 01:00N 45°38' W 122°43'1 1.7
2017-Jul-20 00:30N 45°38' W 122°42'0 0.0
2017-Jul-20 00:00N 45°38' W 122°42'2 3.7
2017-Jul-19 23:30N 45°39' W 122°44'1 1.4
2017-Jul-19 23:00N 45°39' W 122°45'0 0.0
2017-Jul-19 22:30N 45°39' W 122°45'0 0.0
2017-Jul-19 22:00N 45°39' W 122°45'0 0.0
2017-Jul-19 21:30N 45°39' W 122°45'0 0.0
2017-Jul-19 21:00N 45°39' W 122°45'0 0.0
2017-Jul-19 20:21N 45°39' W 122°45'0 0.0
2017-Jul-19 20:00N 45°39' W 122°45'0 0.0
2017-Jul-19 19:27N 45°39' W 122°45'0 0.0
2017-Jul-19 18:57N 45°39' W 122°45'0 0.0
2017-Jul-19 18:30N 45°39' W 122°45'0 0.0
2017-Jul-19 18:00N 45°39' W 122°45'0 0.0
2017-Jul-19 17:30N 45°39' W 122°45'0 0.0
2017-Jul-19 17:00N 45°39' W 122°45'0 0.0
2017-Jul-19 16:27N 45°39' W 122°45'0 0.0
2017-Jul-19 16:00N 45°39' W 122°45'0 0.0
2017-Jul-19 15:27N 45°39' W 122°45'0 0.0
2017-Jul-19 14:57N 45°39' W 122°45'0 0.0
2017-Jul-19 14:27N 45°39' W 122°45'0 0.0
2017-Jul-19 14:00N 45°39' W 122°45'0 0.0
2017-Jul-19 13:27N 45°39' W 122°45'0 0.0
2017-Jul-19 12:57N 45°39' W 122°45'0 0.0
2017-Jul-19 12:30N 45°39' W 122°45'0 0.0
2017-Jul-19 11:57N 45°39' W 122°45'0 0.0
2017-Jul-19 11:30N 45°39' W 122°45'0 0.0
2017-Jul-19 10:57N 45°39' W 122°45'0 0.0
2017-Jul-19 10:30N 45°39' W 122°45'0 0.0
2017-Jul-19 10:00N 45°39' W 122°45'0 0.0
2017-Jul-19 09:21N 45°39' W 122°45'0 0.0
2017-Jul-19 08:57N 45°39' W 122°45'0 0.0
2017-Jul-19 08:30N 45°39' W 122°45'0 0.0
2017-Jul-19 08:00N 45°39' W 122°45'0 0.0
2017-Jul-19 07:30N 45°39' W 122°45'0 0.0
2017-Jul-19 07:00N 45°39' W 122°45'0 0.0
2017-Jul-19 06:27N 45°39' W 122°45'0 0.0
2017-Jul-19 05:57N 45°39' W 122°45'0 0.0
2017-Jul-19 05:30N 45°39' W 122°45'0 0.0
2017-Jul-19 04:54N 45°39' W 122°45'0 0.0
2017-Jul-19 04:24N 45°39' W 122°45'0 0.0
2017-Jul-19 04:00N 45°39' W 122°45'0 0.0
2017-Jul-19 03:30N 45°39' W 122°45'0 0.0
2017-Jul-19 03:00N 45°39' W 122°45'0 0.0
2017-Jul-19 02:30N 45°39' W 122°45'0 0.0
2017-Jul-19 02:00N 45°39' W 122°45'0 0.0
2017-Jul-19 01:30N 45°39' W 122°45'0 0.0
2017-Jul-19 00:51N 45°39' W 122°45'0 0.0
2017-Jul-19 00:30N 45°39' W 122°45'0 0.0
2017-Jul-19 00:00N 45°39' W 122°45'0 0.0
2017-Jul-18 23:30N 45°39' W 122°45'0 0.0
2017-Jul-18 22:57N 45°39' W 122°45'0 0.0
2017-Jul-18 22:30N 45°39' W 122°45'0 0.0
2017-Jul-18 21:57N 45°39' W 122°45'0 0.0
2017-Jul-18 21:30N 45°39' W 122°45'1 1.5
2017-Jul-18 20:57N 45°38' W 122°44'1 1.5
2017-Jul-18 20:30N 45°39' W 122°45'0 0.3
2017-Jul-18 20:00N 45°39' W 122°45'0 0.0
2017-Jul-18 19:18N 45°39' W 122°45'0 0.0
2017-Jul-18 19:00N 45°39' W 122°45'0 0.0
2017-Jul-18 18:06N 45°39' W 122°45'0 0.0
2017-Jul-18 18:00N 45°39' W 122°45'0 0.0
2017-Jul-18 17:30N 45°39' W 122°45'0 0.0
2017-Jul-18 16:33N 45°39' W 122°45'0 0.0
2017-Jul-18 16:30N 45°39' W 122°45'0 0.0
2017-Jul-18 16:00N 45°39' W 122°45'0 0.0
2017-Jul-18 15:27N 45°39' W 122°45'0 0.0
2017-Jul-18 15:01N 45°39' W 122°45'0 0.0
2017-Jul-18 13:58N 45°39' W 122°45'0 0.0
2017-Jul-18 13:30N 45°39' W 122°45'0 0.0
2017-Jul-18 13:01N 45°39' W 122°45'0 0.0
2017-Jul-18 12:27N 45°39' W 122°45'0 0.0
2017-Jul-18 12:00N 45°39' W 122°45'0 0.0
2017-Jul-18 11:24N 45°39' W 122°45'0 0.0
2017-Jul-18 11:01N 45°39' W 122°45'0 0.0
2017-Jul-18 10:30N 45°39' W 122°45'0 0.0
2017-Jul-18 10:00N 45°39' W 122°45'0 0.0
2017-Jul-18 09:19N 45°39' W 122°45'0 0.0
2017-Jul-18 09:00N 45°39' W 122°45'0 0.0
2017-Jul-18 08:18N 45°39' W 122°45'0 0.0
2017-Jul-18 07:51N 45°39' W 122°45'0 0.0
2017-Jul-18 07:30N 45°39' W 122°45'0 0.0
2017-Jul-18 06:54N 45°39' W 122°45'0 0.0
2017-Jul-18 06:31N 45°39' W 122°45'0 0.0
2017-Jul-18 06:00N 45°39' W 122°45'0 0.0
2017-Jul-18 05:30N 45°39' W 122°45'0 0.0
2017-Jul-18 05:00N 45°39' W 122°45'0 0.0
2017-Jul-18 04:21N 45°39' W 122°45'0 0.0
2017-Jul-18 04:00N 45°39' W 122°45'0 0.0
2017-Jul-18 03:30N 45°39' W 122°45'0 0.0
2017-Jul-18 02:48N 45°39' W 122°45'0 0.0
2017-Jul-18 02:30N 45°39' W 122°45'0 0.0
2017-Jul-18 01:54N 45°39' W 122°45'0 0.0
2017-Jul-18 01:27N 45°39' W 122°45'0 0.0
2017-Jul-18 01:00N 45°39' W 122°45'0 0.0
2017-Jul-18 00:12N 45°39' W 122°45'0 0.0
2017-Jul-17 23:58N 45°39' W 122°45'0 0.0
2017-Jul-17 23:27N 45°39' W 122°45'1 1.4
2017-Jul-17 23:01N 45°39' W 122°44'2 3.7
2017-Jul-17 22:27N 45°38' W 122°42'1 2.5
2017-Jul-17 21:58N 45°38' W 122°43'0 0.0
2017-Jul-17 21:25N 45°38' W 122°43'2 2.8
2017-Jul-17 20:53N 45°39' W 122°45'0 0.0
2017-Jul-17 20:20N 45°39' W 122°45'0 1.1
2017-Jul-17 20:00N 45°39' W 122°45'1 2.2
2017-Jul-17 19:30N 45°38' W 122°47'0 0.2
2017-Jul-17 18:55N 45°38' W 122°47'0 0.1
2017-Jul-17 18:29N 45°38' W 122°47'4 8.0
2017-Jul-17 18:00N 45°35' W 122°45'1 2.0
2017-Jul-17 17:30N 45°34' W 122°44'3 6.1
2017-Jul-17 17:00N 45°32' W 122°40'0 0.6
2017-Jul-17 16:28N 45°32' W 122°41'510.7
2017-Jul-17 16:00N 45°35' W 122°46'1 1.0
2017-Jul-17 15:28N 45°36' W 122°47'2 4.3
2017-Jul-17 15:00N 45°38' W 122°47'2 3.2
2017-Jul-17 14:26N 45°39' W 122°45'0 0.0
2017-Jul-17 13:59N 45°39' W 122°45'0 0.0
2017-Jul-17 13:29N 45°39' W 122°45'0 0.0
2017-Jul-17 12:56N 45°39' W 122°45'0 0.0
2017-Jul-17 12:29N 45°39' W 122°45'0 0.0
2017-Jul-17 11:53N 45°39' W 122°45'0 0.8
2017-Jul-17 11:30N 45°39' W 122°45'3 5.9
2017-Jul-17 11:01N 45°36' W 122°47'0 0.0
2017-Jul-17 10:30N 45°36' W 122°47'0 1.0
2017-Jul-17 10:00N 45°36' W 122°47'3 5.4
2017-Jul-17 09:30N 45°39' W 122°46'1 1.3
2017-Jul-17 08:56N 45°39' W 122°45'0 0.0
2017-Jul-17 08:23N 45°39' W 122°45'0 0.0
2017-Jul-17 07:53N 45°39' W 122°45'0 0.0
2017-Jul-17 07:26N 45°39' W 122°45'0 0.0
2017-Jul-17 06:56N 45°39' W 122°45'0 0.0
2017-Jul-17 06:29N 45°39' W 122°45'0 0.0
2017-Jul-17 05:59N 45°39' W 122°45'0 0.0
2017-Jul-17 05:23N 45°39' W 122°45'0 0.0
2017-Jul-17 04:59N 45°39' W 122°45'0 1.0
2017-Jul-17 04:30N 45°39' W 122°44'1 2.2
2017-Jul-17 04:00N 45°38' W 122°43'1 1.1
2017-Jul-17 03:30N 45°39' W 122°44'0 0.8
2017-Jul-17 03:00N 45°39' W 122°44'1 1.2
2017-Jul-17 02:28N 45°39' W 122°45'0 0.0
2017-Jul-17 01:58N 45°39' W 122°45'0 0.0
2017-Jul-17 01:28N 45°39' W 122°45'0 0.0
2017-Jul-17 00:58N 45°39' W 122°45'0 0.0
2017-Jul-16 23:43N 45°39' W 122°45'0 0.0
2017-Jul-16 23:28N 45°39' W 122°45'0 0.0
2017-Jul-16 22:58N 45°39' W 122°45'0 0.0
2017-Jul-16 22:28N 45°39' W 122°45'0 0.0
2017-Jul-16 21:58N 45°39' W 122°45'0 0.0
2017-Jul-16 21:28N 45°39' W 122°45'0 0.0
2017-Jul-16 20:58N 45°39' W 122°45'0 0.0
2017-Jul-16 20:19N 45°39' W 122°45'0 0.0
2017-Jul-16 19:58N 45°39' W 122°45'0 0.0
2017-Jul-16 19:28N 45°39' W 122°45'0 0.0
2017-Jul-16 18:52N 45°39' W 122°45'0 0.0
2017-Jul-16 18:28N 45°39' W 122°45'2 5.3
2017-Jul-16 18:00N 45°38' W 122°42'0 0.0
2017-Jul-16 17:30N 45°38' W 122°42'3 4.2
2017-Jul-16 16:54N 45°39' W 122°45'0 0.0
2017-Jul-16 16:30N 45°39' W 122°45'0 0.0
2017-Jul-16 15:51N 45°39' W 122°45'0 0.0
2017-Jul-16 15:30N 45°39' W 122°45'0 0.0
2017-Jul-16 14:54N 45°39' W 122°45'0 0.0
2017-Jul-16 14:30N 45°39' W 122°45'0 0.0
2017-Jul-16 14:00N 45°39' W 122°45'0 0.0
2017-Jul-16 13:18N 45°39' W 122°45'0 0.0
2017-Jul-16 13:00N 45°39' W 122°45'0 0.0
2017-Jul-16 12:27N 45°39' W 122°45'0 0.0
2017-Jul-16 12:00N 45°39' W 122°45'0 0.0
2017-Jul-16 11:24N 45°39' W 122°45'0 0.0
2017-Jul-16 10:57N 45°39' W 122°45'0 0.0
2017-Jul-16 10:30N 45°39' W 122°45'0 0.0
2017-Jul-16 10:00N 45°39' W 122°45'0 0.0
2017-Jul-16 09:27N 45°39' W 122°45'0 0.0
2017-Jul-16 09:00N 45°39' W 122°45'0 0.0
2017-Jul-16 08:30N 45°39' W 122°45'0 0.0
2017-Jul-16 08:00N 45°39' W 122°45'1 1.6
2017-Jul-16 07:30N 45°39' W 122°46'3 6.7
2017-Jul-16 07:00N 45°36' W 122°47'3 5.1
2017-Jul-16 06:24N 45°34' W 122°44'1 1.2
2017-Jul-16 05:54N 45°34' W 122°44'1 1.4
2017-Jul-16 05:30N 45°35' W 122°45'1 2.2
2017-Jul-16 05:00N 45°34' W 122°44'0 0.7
2017-Jul-16 04:29N 45°34' W 122°44'1 1.8
2017-Jul-16 04:00N 45°35' W 122°45'3 5.9
2017-Jul-16 03:30N 45°37' W 122°47'2 3.2
2017-Jul-16 02:50N 45°39' W 122°45'0 0.0
2017-Jul-16 02:29N 45°39' W 122°45'0 0.0
2017-Jul-16 01:59N 45°39' W 122°45'0 0.0
2017-Jul-16 01:26N 45°39' W 122°45'0 0.0
2017-Jul-16 00:56N 45°39' W 122°45'0 0.0
2017-Jul-16 00:26N 45°39' W 122°45'0 0.1
2017-Jul-16 00:00N 45°39' W 122°45'2 4.4
2017-Jul-15 23:29N 45°38' W 122°42'0 0.1
2017-Jul-15 22:59N 45°38' W 122°42'2 4.5
2017-Jul-15 22:28N 45°39' W 122°45'0 0.0
2017-Jul-15 21:58N 45°39' W 122°45'0 0.0
2017-Jul-15 20:17N 45°39' W 122°45'0 0.0
2017-Jul-15 19:46N 45°39' W 122°45'0 0.0
2017-Jul-15 18:19N 45°39' W 122°45'0 0.0
2017-Jul-15 17:55N 45°39' W 122°45'0 0.0
2017-Jul-15 17:13N 45°39' W 122°45'0 0.0
2017-Jul-15 16:28N 45°39' W 122°45'0 0.0
2017-Jul-15 15:40N 45°39' W 122°45'0 0.0
2017-Jul-15 15:28N 45°39' W 122°45'0 0.0
2017-Jul-15 14:52N 45°39' W 122°45'0 0.0
2017-Jul-15 13:52N 45°39' W 122°45'0 0.0
2017-Jul-15 13:28N 45°39' W 122°45'0 0.0
2017-Jul-15 12:58N 45°39' W 122°45'0 0.0
2017-Jul-15 12:07N 45°39' W 122°45'0 0.0
2017-Jul-15 11:58N 45°39' W 122°45'0 0.0
2017-Jul-15 11:25N 45°39' W 122°45'0 0.0
2017-Jul-15 10:43N 45°39' W 122°45'0 0.0
2017-Jul-15 10:28N 45°39' W 122°45'0 0.0
2017-Jul-15 09:58N 45°39' W 122°45'0 0.0
2017-Jul-15 09:25N 45°39' W 122°45'0 0.0
2017-Jul-15 08:55N 45°39' W 122°45'0 0.0
2017-Jul-15 08:28N 45°39' W 122°45'0 0.0
2017-Jul-15 07:58N 45°39' W 122°45'0 0.0
2017-Jul-15 07:22N 45°39' W 122°45'0 0.0
2017-Jul-15 06:58N 45°39' W 122°45'0 0.0
2017-Jul-15 06:22N 45°39' W 122°45'0 0.0
2017-Jul-15 05:46N 45°39' W 122°45'0 0.0
2017-Jul-15 05:22N 45°39' W 122°45'0 0.0
2017-Jul-15 04:58N 45°39' W 122°45'0 0.8
2017-Jul-15 04:21N 45°39' W 122°45'0 0.3
2017-Jul-15 04:01N 45°39' W 122°44'0 0.0
2017-Jul-15 03:31N 45°39' W 122°44'0 0.2
2017-Jul-15 03:00N 45°39' W 122°45'0 0.3
2017-Jul-15 02:31N 45°39' W 122°44'0 0.1
2017-Jul-15 02:00N 45°39' W 122°44'0 0.2
2017-Jul-15 01:31N 45°39' W 122°45'1 1.2
2017-Jul-15 01:00N 45°39' W 122°45'3 5.3
2017-Jul-15 00:30N 45°38' W 122°42'0 0.0
2017-Jul-15 00:00N 45°38' W 122°42'2 3.1
2017-Jul-14 23:30N 45°38' W 122°44'1 1.9
2017-Jul-14 23:00N 45°39' W 122°45'0 0.0
2017-Jul-14 22:30N 45°39' W 122°45'0 0.0
2017-Jul-14 22:00N 45°39' W 122°45'0 0.0
2017-Jul-14 21:30N 45°39' W 122°45'0 0.0
2017-Jul-14 21:00N 45°39' W 122°45'0 0.0
2017-Jul-14 20:18N 45°39' W 122°45'0 0.0
2017-Jul-14 19:57N 45°39' W 122°45'0 0.6
2017-Jul-14 19:11N 45°39' W 122°45'0 0.7
2017-Jul-14 18:56N 45°39' W 122°44'0 0.0
2017-Jul-14 18:29N 45°39' W 122°44'0 0.2
2017-Jul-14 18:00N 45°39' W 122°44'1 0.8
2017-Jul-14 17:21N 45°39' W 122°45'0 0.0
2017-Jul-14 17:00N 45°39' W 122°45'0 0.0
2017-Jul-14 16:30N 45°39' W 122°45'0 0.0
2017-Jul-14 15:51N 45°39' W 122°45'0 0.1
2017-Jul-14 15:30N 45°39' W 122°45'0 0.0
2017-Jul-14 15:00N 45°39' W 122°45'0 0.0
2017-Jul-14 14:03N 45°39' W 122°45'0 0.0
2017-Jul-14 13:51N 45°39' W 122°45'0 0.0
2017-Jul-14 13:18N 45°39' W 122°45'1 4.5
2017-Jul-14 13:00N 45°40' W 122°46'1 2.7
2017-Jul-14 12:31N 45°39' W 122°45'0 0.0
2017-Jul-14 12:00N 45°39' W 122°45'0 0.0
2017-Jul-14 11:10N 45°39' W 122°45'0 0.0
2017-Jul-14 11:00N 45°39' W 122°45'0 0.0
2017-Jul-14 10:30N 45°39' W 122°45'0 0.0
2017-Jul-14 10:01N 45°39' W 122°45'0 0.0
2017-Jul-14 09:28N 45°39' W 122°45'0 0.0
2017-Jul-14 09:00N 45°39' W 122°45'0 0.0
2017-Jul-14 08:28N 45°39' W 122°45'0 0.0
2017-Jul-14 08:00N 45°39' W 122°45'0 0.0
2017-Jul-14 07:27N 45°39' W 122°45'1 2.6
2017-Jul-14 07:00N 45°38' W 122°47'0 0.0
2017-Jul-14 06:31N 45°38' W 122°47'  

Dump ship's entire track history